Time;durP1;ratioP1;P1;durP2;ratioP2;P2;SDS_P1;SDS_P2;PMS_P1;PMS_P2;Temp;Humidity;BMP_temperature;BMP_pressure;BME280_temperature;BME280_humidity;BME280_pressure;Samples;Min_cycle;Max_cycle;Signal;HPM_P1;HPM_P2
2021/06/06 00:01:23;;;;;;;52.83;41.70;;;16.00;99.90;;;;;;5008486;28;20486;-67
2021/06/06 00:03:52;;;;;;;56.60;41.30;;;16.00;99.90;;;;;;5004248;28;20235;-66
2021/06/06 00:06:38;;;;;;;57.37;44.83;;;16.00;99.90;;;;;;5002939;28;20844;-66
2021/06/06 00:09:09;;;;;;;57.43;42.40;;;16.00;99.90;;;;;;5005803;28;20531;-66
2021/06/06 00:11:39;;;;;;;51.80;43.03;;;16.00;99.90;;;;;;5007821;28;20463;-66
2021/06/06 00:14:08;;;;;;;50.27;40.07;;;16.00;99.90;;;;;;5007957;28;20500;-66
2021/06/06 00:16:38;;;;;;;52.23;41.17;;;15.90;99.90;;;;;;5007209;28;20971;-66
2021/06/06 00:19:05;;;;;;;54.33;42.13;;;15.90;99.90;;;;;;5006884;28;20459;-66
2021/06/06 00:21:31;;;;;;;52.03;41.43;;;15.90;99.90;;;;;;5002854;28;21084;-66
2021/06/06 00:23:57;;;;;;;54.73;41.73;;;15.90;99.90;;;;;;4999839;28;20445;-66
2021/06/06 00:26:24;;;;;;;53.93;44.03;;;15.90;99.90;;;;;;5004134;28;20423;-66
2021/06/06 00:28:50;;;;;;;53.47;43.20;;;15.90;99.90;;;;;;5006208;28;20839;-66
2021/06/06 00:31:16;;;;;;;60.10;44.87;;;15.90;99.90;;;;;;5006503;28;20451;-66
2021/06/06 00:33:41;;;;;;;53.63;43.90;;;15.90;99.90;;;;;;4999028;28;20661;-66
2021/06/06 00:36:09;;;;;;;56.10;44.87;;;15.90;99.90;;;;;;5008571;28;20515;-66
2021/06/06 00:38:35;;;;;;;57.07;43.03;;;15.90;99.90;;;;;;5005844;28;20168;-66
2021/06/06 00:41:01;;;;;;;56.03;42.20;;;15.90;99.90;;;;;;5008433;28;20472;-66
2021/06/06 00:43:28;;;;;;;62.73;43.17;;;15.90;99.90;;;;;;5004562;28;20490;-66
2021/06/06 00:45:54;;;;;;;59.40;44.50;;;15.90;99.90;;;;;;5003659;28;20442;-66
2021/06/06 00:48:20;;;;;;;66.17;45.00;;;15.90;99.90;;;;;;5010189;28;20443;-66
2021/06/06 00:50:50;;;;;;;62.23;46.87;;;15.90;99.90;;;;;;5010662;28;20564;-66
2021/06/06 00:53:33;;;;;;;66.03;44.60;;;15.90;99.90;;;;;;5008098;28;20731;-66
2021/06/06 00:55:59;;;;;;;59.40;42.17;;;15.90;99.90;;;;;;5004042;28;20437;-66
2021/06/06 00:58:25;;;;;;;68.70;45.97;;;15.80;99.90;;;;;;5012206;28;20438;-66
2021/06/06 01:00:53;;;;;;;64.73;44.47;;;15.80;99.90;;;;;;5010701;28;20426;-66
2021/06/06 01:03:22;;;;;;;55.67;41.60;;;15.80;99.90;;;;;;5008762;28;20994;-66
2021/06/06 01:06:15;;;;;;;51.03;38.30;;;15.80;99.90;;;;;;5008576;28;20925;-66
2021/06/06 01:08:41;;;;;;;53.03;41.03;;;15.80;99.90;;;;;;5002176;28;20431;-66
2021/06/06 01:11:15;;;;;;;58.03;40.00;;;15.70;99.90;;;;;;5003418;28;20559;-66
2021/06/06 01:13:46;;;;;;;59.57;42.47;;;15.70;99.90;;;;;;5009738;28;20419;-66
2021/06/06 01:16:32;;;;;;;59.80;41.60;;;15.70;99.90;;;;;;5010538;28;20917;-66
2021/06/06 01:19:01;;;;;;;59.60;43.30;;;15.70;99.90;;;;;;5010073;28;20424;-66
2021/06/06 01:21:54;;;;;;;58.73;44.90;;;15.60;99.90;;;;;;5008994;28;20981;-66
2021/06/06 01:24:31;;;;;;;61.87;41.57;;;15.60;99.90;;;;;;5009981;28;20523;-66
2021/06/06 01:27:10;;;;;;;63.73;46.10;;;15.60;99.90;;;;;;5004572;28;20505;-66
2021/06/06 01:30:01;;;;;;;64.67;44.07;;;15.60;99.90;;;;;;5010046;28;20785;-67
2021/06/06 01:32:31;;;;;;;67.90;47.37;;;15.60;99.90;;;;;;5004581;28;20492;-66
2021/06/06 01:35:11;;;;;;;69.00;48.47;;;15.60;99.90;;;;;;5004081;28;20423;-66
2021/06/06 01:37:48;;;;;;;68.27;46.67;;;15.60;99.90;;;;;;5010395;28;20774;-66
2021/06/06 01:40:17;;;;;;;62.13;46.10;;;15.60;99.90;;;;;;5008848;28;20484;-66
2021/06/06 01:42:48;;;;;;;65.17;47.50;;;15.50;99.90;;;;;;5007113;28;20430;-66
2021/06/06 01:45:21;;;;;;;65.33;45.03;;;15.50;99.90;;;;;;5003387;28;20445;-66
2021/06/06 01:47:49;;;;;;;61.50;45.97;;;15.50;99.90;;;;;;5008504;28;20797;-66
2021/06/06 01:50:36;;;;;;;66.60;45.57;;;15.50;99.90;;;;;;5010127;28;20523;-66
2021/06/06 01:53:05;;;;;;;58.13;43.30;;;15.50;99.90;;;;;;5003597;28;20438;-66
2021/06/06 01:55:32;;;;;;;57.77;43.20;;;15.50;99.90;;;;;;5010112;28;21011;-66
2021/06/06 01:58:04;;;;;;;55.50;42.10;;;15.50;99.90;;;;;;5009467;28;21098;-66
2021/06/06 02:00:42;;;;;;;52.07;40.53;;;15.50;99.90;;;;;;5009074;28;20452;-66
2021/06/06 02:03:07;;;;;;;54.20;39.70;;;15.40;99.90;;;;;;5006499;28;20436;-66
2021/06/06 02:05:33;;;;;;;54.43;41.37;;;15.40;99.90;;;;;;5004820;28;20533;-66
2021/06/06 02:08:02;;;;;;;55.57;41.53;;;15.40;99.90;;;;;;4998318;28;20189;-66
2021/06/06 02:10:34;;;;;;;52.80;41.73;;;15.40;99.90;;;;;;5011135;28;20468;-67
2021/06/06 02:13:12;;;;;;;58.97;43.60;;;15.40;99.90;;;;;;5005883;28;20427;-66
2021/06/06 02:15:38;;;;;;;55.97;40.97;;;15.40;99.90;;;;;;5007965;28;20446;-66
2021/06/06 02:18:07;;;;;;;54.17;39.60;;;15.30;99.90;;;;;;5011142;28;20927;-66
2021/06/06 02:20:42;;;;;;;48.43;37.33;;;15.30;99.90;;;;;;5008988;28;20790;-66
2021/06/06 02:23:09;;;;;;;62.20;39.07;;;15.40;99.90;;;;;;5006527;28;20529;-66
2021/06/06 02:25:37;;;;;;;53.10;39.80;;;15.30;99.90;;;;;;5009701;28;20448;-66
2021/06/06 02:28:32;;;;;;;48.33;39.63;;;15.30;99.90;;;;;;5003599;28;20442;-65
2021/06/06 02:31:35;;;;;;;56.07;40.43;;;15.30;99.90;;;;;;5002719;28;20467;-65
2021/06/06 02:34:18;;;;;;;50.50;42.03;;;15.30;99.90;;;;;;5001922;28;20430;-67
2021/06/06 02:36:53;;;;;;;55.63;44.57;;;15.20;99.90;;;;;;5008954;28;20920;-66
2021/06/06 02:39:32;;;;;;;63.43;48.67;;;15.20;99.90;;;;;;5008008;28;20475;-66
2021/06/06 02:42:04;;;;;;;78.10;55.97;;;15.20;99.90;;;;;;5015674;28;20964;-66
2021/06/06 02:44:39;;;;;;;76.77;57.07;;;15.30;99.90;;;;;;5010550;28;20446;-66
2021/06/06 02:47:07;;;;;;;93.33;61.40;;;15.20;99.90;;;;;;5010069;28;20423;-66
2021/06/06 02:49:39;;;;;;;98.37;66.00;;;15.30;99.90;;;;;;5006792;28;20562;-66
2021/06/06 02:52:15;;;;;;;92.63;68.20;;;15.30;99.90;;;;;;5005698;28;20463;-66
2021/06/06 02:55:01;;;;;;;101.77;71.40;;;15.30;99.90;;;;;;5007861;28;20439;-66
2021/06/06 02:57:29;;;;;;;104.73;71.90;;;15.20;99.90;;;;;;5008797;28;20529;-66
2021/06/06 03:00:19;;;;;;;108.27;69.03;;;15.20;99.90;;;;;;5008971;28;20487;-66
2021/06/06 03:02:51;;;;;;;118.27;76.80;;;15.30;99.90;;;;;;5009188;28;20921;-66
2021/06/06 03:05:21;;;;;;;118.37;77.47;;;15.20;99.90;;;;;;5007016;28;20460;-66
2021/06/06 03:07:50;;;;;;;110.77;73.77;;;15.20;99.90;;;;;;5008262;28;20432;-66
2021/06/06 03:10:19;;;;;;;103.77;73.77;;;15.20;99.90;;;;;;5007869;28;20987;-66
2021/06/06 03:12:47;;;;;;;109.27;70.60;;;15.30;99.90;;;;;;5007788;28;20430;-66
2021/06/06 03:15:14;;;;;;;109.77;69.07;;;15.20;99.90;;;;;;4996059;28;20435;-66
2021/06/06 03:17:44;;;;;;;104.20;72.10;;;15.20;99.90;;;;;;4998043;28;20439;-66
2021/06/06 03:20:14;;;;;;;103.83;69.93;;;15.20;99.90;;;;;;5007295;28;20526;-66
2021/06/06 03:22:42;;;;;;;106.20;69.53;;;15.30;99.90;;;;;;5004315;28;20434;-66
2021/06/06 03:25:16;;;;;;;118.10;69.53;;;15.20;99.90;;;;;;5007448;28;20439;-66
2021/06/06 03:27:43;;;;;;;95.23;65.20;;;15.30;99.90;;;;;;5003013;28;20431;-66
2021/06/06 03:30:34;;;;;;;94.07;63.57;;;15.20;99.90;;;;;;5009771;28;20432;-66
2021/06/06 03:33:03;;;;;;;85.33;57.90;;;15.30;99.90;;;;;;5006844;28;20945;-66
2021/06/06 03:35:29;;;;;;;80.93;55.53;;;15.20;99.90;;;;;;4997279;28;20493;-66
2021/06/06 03:37:54;;;;;;;78.07;54.07;;;15.20;99.90;;;;;;5007889;28;20478;-66
2021/06/06 03:40:25;;;;;;;76.83;54.93;;;15.20;99.90;;;;;;5007895;28;20228;-66
2021/06/06 03:42:51;;;;;;;68.20;49.37;;;15.20;99.90;;;;;;5000574;28;20192;-66
2021/06/06 03:45:18;;;;;;;62.63;45.47;;;15.20;99.90;;;;;;5001745;28;20480;-66
2021/06/06 03:47:44;;;;;;;62.00;45.20;;;15.20;99.90;;;;;;5009142;28;20191;-66
2021/06/06 03:50:12;;;;;;;65.30;47.63;;;15.20;99.90;;;;;;5006809;28;20427;-66
2021/06/06 03:52:39;;;;;;;57.17;45.93;;;15.10;99.90;;;;;;5001680;28;20432;-66
2021/06/06 03:55:08;;;;;;;65.77;49.07;;;15.10;99.90;;;;;;5006169;28;20430;-66
2021/06/06 03:57:33;;;;;;;63.30;51.70;;;15.10;99.90;;;;;;4999193;28;20512;-66
2021/06/06 04:00:01;;;;;;;76.67;52.87;;;15.10;99.90;;;;;;5008117;28;20938;-66
2021/06/06 04:02:26;;;;;;;74.23;56.67;;;15.10;99.90;;;;;;5006465;28;20688;-66
2021/06/06 04:04:52;;;;;;;95.33;59.93;;;15.10;99.90;;;;;;4998595;28;20430;-66
2021/06/06 04:07:17;;;;;;;89.40;60.67;;;15.10;99.90;;;;;;5009585;28;20186;-66
2021/06/06 04:09:43;;;;;;;100.40;63.20;;;15.10;99.90;;;;;;5005452;28;20176;-66
2021/06/06 04:12:09;;;;;;;103.73;67.40;;;15.10;99.90;;;;;;5006945;28;20195;-66
2021/06/06 04:14:35;;;;;;;86.93;59.20;;;15.10;99.90;;;;;;5006880;28;20434;-66
2021/06/06 04:17:00;;;;;;;76.37;53.67;;;15.10;99.90;;;;;;5008391;28;20195;-66
2021/06/06 04:19:26;;;;;;;85.93;53.07;;;15.10;99.90;;;;;;5006497;28;20665;-66
2021/06/06 04:21:52;;;;;;;65.53;44.43;;;15.10;99.90;;;;;;5002978;28;20183;-66
2021/06/06 04:24:17;;;;;;;58.00;43.93;;;15.10;99.90;;;;;;5007287;28;20213;-66
2021/06/06 04:26:43;;;;;;;59.97;41.87;;;15.10;99.90;;;;;;5003618;28;20203;-66
2021/06/06 04:29:08;;;;;;;58.50;43.07;;;15.10;99.90;;;;;;5008280;28;20180;-66
2021/06/06 04:31:35;;;;;;;63.93;47.20;;;15.10;99.90;;;;;;5007153;28;20199;-66
2021/06/06 04:34:02;;;;;;;53.47;39.50;;;15.10;99.90;;;;;;5000812;28;20200;-66
2021/06/06 04:36:27;;;;;;;52.70;40.57;;;15.10;99.90;;;;;;5008157;28;20492;-68
2021/06/06 04:38:53;;;;;;;50.87;41.90;;;15.10;99.90;;;;;;5006755;28;20809;-66
2021/06/06 04:41:19;;;;;;;51.57;38.77;;;15.10;99.90;;;;;;5007137;28;20196;-66
2021/06/06 04:43:44;;;;;;;49.27;39.67;;;15.10;99.90;;;;;;5002320;28;20181;-67
2021/06/06 04:46:11;;;;;;;49.80;38.13;;;15.10;99.90;;;;;;5000682;28;20212;-66
2021/06/06 04:48:42;;;;;;;45.77;35.07;;;15.10;99.90;;;;;;5009000;28;20211;-66
2021/06/06 04:51:11;;;;;;;45.27;36.57;;;15.10;99.90;;;;;;5004006;28;21039;-66
2021/06/06 04:53:37;;;;;;;47.50;37.17;;;15.10;99.90;;;;;;5006069;28;20497;-66
2021/06/06 04:56:03;;;;;;;50.07;36.37;;;15.10;99.90;;;;;;5006954;28;20838;-67
2021/06/06 04:58:31;;;;;;;49.60;38.03;;;15.10;99.90;;;;;;5009082;28;20212;-66
2021/06/06 05:00:56;;;;;;;48.43;38.40;;;15.10;99.90;;;;;;5006904;28;20866;-66
2021/06/06 05:03:22;;;;;;;52.70;39.23;;;15.20;99.90;;;;;;4998398;28;20538;-66
2021/06/06 05:05:48;;;;;;;49.60;39.07;;;15.20;99.90;;;;;;5002607;28;20200;-66
2021/06/06 05:08:17;;;;;;;45.23;39.03;;;15.20;99.90;;;;;;5007338;28;20626;-66
2021/06/06 05:10:44;;;;;;;48.43;38.97;;;15.10;99.90;;;;;;5008109;28;20483;-67
2021/06/06 05:13:11;;;;;;;45.03;35.47;;;15.20;99.90;;;;;;5005985;28;20927;-66
2021/06/06 05:15:37;;;;;;;45.00;34.67;;;15.20;99.90;;;;;;5007075;28;21009;-66
2021/06/06 05:18:03;;;;;;;43.83;36.47;;;15.20;99.90;;;;;;5007870;28;20567;-67
2021/06/06 05:20:36;;;;;;;42.83;36.23;;;15.20;99.90;;;;;;5007564;28;20445;-69
2021/06/06 05:23:03;;;;;;;44.57;35.67;;;15.20;99.90;;;;;;5005500;28;20921;-66
2021/06/06 05:25:29;;;;;;;44.20;35.23;;;15.20;99.90;;;;;;5007537;28;20460;-66
2021/06/06 05:27:54;;;;;;;39.30;32.40;;;15.20;99.90;;;;;;5004787;28;20434;-66
2021/06/06 05:30:24;;;;;;;36.13;30.37;;;15.20;99.90;;;;;;5007576;28;20207;-66
2021/06/06 05:32:51;;;;;;;39.93;32.90;;;15.20;99.90;;;;;;5007697;28;20191;-66
2021/06/06 05:35:18;;;;;;;45.57;34.10;;;15.20;99.90;;;;;;5007020;28;20507;-66
2021/06/06 05:37:44;;;;;;;49.50;32.90;;;15.20;99.90;;;;;;5011250;28;20441;-66
2021/06/06 05:40:11;;;;;;;39.83;29.50;;;15.20;99.90;;;;;;5008604;28;20476;-66
2021/06/06 05:42:37;;;;;;;35.20;30.43;;;15.20;99.90;;;;;;5008070;28;20241;-66
2021/06/06 05:45:04;;;;;;;40.57;30.97;;;15.30;99.90;;;;;;5009911;28;20927;-66
2021/06/06 05:47:30;;;;;;;35.10;30.00;;;15.30;99.90;;;;;;5011714;28;20192;-66
2021/06/06 05:49:57;;;;;;;38.33;31.47;;;15.30;99.90;;;;;;5001152;28;20992;-66
2021/06/06 05:52:23;;;;;;;35.97;28.50;;;15.30;99.90;;;;;;5006813;28;20229;-66
2021/06/06 05:54:49;;;;;;;36.70;30.00;;;15.30;99.90;;;;;;5004255;28;20422;-67
2021/06/06 05:57:15;;;;;;;41.40;32.33;;;15.30;99.90;;;;;;5008065;28;20259;-66
2021/06/06 05:59:40;;;;;;;33.73;29.43;;;15.30;99.90;;;;;;5000318;28;20536;-66
2021/06/06 06:02:06;;;;;;;36.10;28.37;;;15.30;99.90;;;;;;5009696;28;20174;-66
2021/06/06 06:04:32;;;;;;;34.20;28.23;;;15.30;99.90;;;;;;5002239;28;20807;-66
2021/06/06 06:06:57;;;;;;;33.03;29.57;;;15.40;99.90;;;;;;5010094;28;20188;-68
2021/06/06 06:09:23;;;;;;;36.77;26.63;;;15.40;99.90;;;;;;5008915;28;20657;-68
2021/06/06 06:11:48;;;;;;;35.33;29.77;;;15.40;99.90;;;;;;5008213;28;20604;-68
2021/06/06 06:14:14;;;;;;;32.30;28.30;;;15.40;99.90;;;;;;5008260;28;20212;-68
2021/06/06 06:16:40;;;;;;;30.30;26.60;;;15.40;99.90;;;;;;5011497;28;20271;-66
2021/06/06 06:19:09;;;;;;;37.17;30.47;;;15.40;99.90;;;;;;5002314;28;20528;-66
2021/06/06 06:21:37;;;;;;;32.73;28.60;;;15.40;99.90;;;;;;5006301;28;20419;-66
2021/06/06 06:24:04;;;;;;;32.83;27.30;;;15.40;99.90;;;;;;5006350;28;20513;-66
2021/06/06 06:26:30;;;;;;;34.70;26.50;;;15.40;99.90;;;;;;5006405;28;20426;-67
2021/06/06 06:28:55;;;;;;;35.57;28.57;;;15.40;99.90;;;;;;5009907;28;20427;-66
2021/06/06 06:31:21;;;;;;;33.70;28.93;;;15.40;99.90;;;;;;5008806;28;20702;-66
2021/06/06 06:33:48;;;;;;;35.10;28.70;;;15.40;99.90;;;;;;5006126;28;20183;-66
2021/06/06 06:36:16;;;;;;;37.07;27.30;;;15.40;99.90;;;;;;5008368;28;20435;-66
2021/06/06 06:38:42;;;;;;;36.57;29.20;;;15.40;99.90;;;;;;5009390;28;20847;-66
2021/06/06 06:41:08;;;;;;;39.47;29.80;;;15.50;99.90;;;;;;5007629;28;20529;-66
2021/06/06 06:43:33;;;;;;;34.43;29.13;;;15.50;99.90;;;;;;5003459;28;20428;-66
2021/06/06 06:45:59;;;;;;;33.80;30.20;;;15.50;99.90;;;;;;5009899;28;20235;-66
2021/06/06 06:48:27;;;;;;;36.57;28.90;;;15.50;99.90;;;;;;5009731;28;20189;-66
2021/06/06 06:50:54;;;;;;;37.10;32.30;;;15.60;99.90;;;;;;5008701;28;20215;-66
2021/06/06 06:53:21;;;;;;;34.57;30.37;;;15.60;99.90;;;;;;5001983;28;20490;-66
2021/06/06 06:55:46;;;;;;;38.90;27.90;;;15.60;99.90;;;;;;5009473;28;20435;-66
2021/06/06 06:58:12;;;;;;;35.63;30.00;;;15.60;99.90;;;;;;5007602;28;20416;-66
2021/06/06 07:00:41;;;;;;;35.80;29.20;;;15.60;99.90;;;;;;5008445;28;20195;-67
2021/06/06 07:03:09;;;;;;;33.50;28.50;;;15.60;99.90;;;;;;5004185;28;20439;-66
2021/06/06 07:05:35;;;;;;;35.43;27.80;;;15.60;99.90;;;;;;5007596;28;20806;-66
2021/06/06 07:08:01;;;;;;;33.90;28.83;;;15.60;99.90;;;;;;5010148;28;20443;-66
2021/06/06 07:10:30;;;;;;;35.60;29.33;;;15.60;99.90;;;;;;5008369;28;20463;-66
2021/06/06 07:12:55;;;;;;;36.80;30.53;;;15.60;99.90;;;;;;5007426;28;20444;-66
2021/06/06 07:15:21;;;;;;;38.40;34.00;;;15.60;99.90;;;;;;5007958;28;20439;-66
2021/06/06 07:17:47;;;;;;;37.60;31.40;;;15.70;99.90;;;;;;5010358;28;20199;-67
2021/06/06 07:20:22;;;;;;;39.80;33.33;;;15.70;99.90;;;;;;5006933;28;20177;-67
2021/06/06 07:22:47;;;;;;;42.07;30.77;;;15.80;99.90;;;;;;5005068;28;20439;-67
2021/06/06 07:25:14;;;;;;;34.70;30.93;;;15.80;99.90;;;;;;5006519;28;20435;-67
2021/06/06 07:27:43;;;;;;;36.40;29.93;;;15.80;99.90;;;;;;5006526;28;20601;-67
2021/06/06 07:30:13;;;;;;;41.33;30.33;;;15.90;99.90;;;;;;5007646;28;20428;-67
2021/06/06 07:32:39;;;;;;;32.73;29.20;;;16.00;99.90;;;;;;5005840;28;20481;-67
2021/06/06 07:35:06;;;;;;;36.40;30.60;;;16.10;99.90;;;;;;5005151;28;20919;-67
2021/06/06 07:37:32;;;;;;;35.90;31.27;;;16.10;99.90;;;;;;4997838;28;20437;-67
2021/06/06 07:39:59;;;;;;;34.53;30.87;;;16.20;99.90;;;;;;5008801;28;21027;-67
2021/06/06 07:42:25;;;;;;;35.50;31.67;;;16.30;99.90;;;;;;5001671;28;20438;-67
2021/06/06 07:44:50;;;;;;;34.07;30.07;;;16.30;99.90;;;;;;5007106;28;20424;-67
2021/06/06 07:47:16;;;;;;;36.10;30.00;;;16.30;99.90;;;;;;5000728;28;20182;-67
2021/06/06 07:49:41;;;;;;;34.67;29.57;;;16.30;99.90;;;;;;5008586;28;20189;-67
2021/06/06 07:52:08;;;;;;;36.97;31.87;;;16.30;99.90;;;;;;4999857;28;20189;-67
2021/06/06 07:54:34;;;;;;;35.10;31.30;;;16.30;99.90;;;;;;4996975;28;20197;-67
2021/06/06 07:57:01;;;;;;;37.23;30.90;;;16.30;99.90;;;;;;5007527;28;20434;-67
2021/06/06 07:59:27;;;;;;;36.20;31.37;;;16.30;99.90;;;;;;5006721;28;20452;-67
2021/06/06 08:01:53;;;;;;;38.87;32.80;;;16.40;99.90;;;;;;5005192;28;20796;-67
2021/06/06 08:04:18;;;;;;;37.47;33.20;;;16.30;99.90;;;;;;5005101;28;20654;-67
2021/06/06 08:06:44;;;;;;;36.63;32.73;;;16.30;99.90;;;;;;5008979;28;20216;-67
2021/06/06 08:09:10;;;;;;;35.43;31.43;;;16.40;99.90;;;;;;5006750;28;20182;-67
2021/06/06 08:11:36;;;;;;;41.73;34.40;;;16.40;99.90;;;;;;5005862;28;20729;-67
2021/06/06 08:14:02;;;;;;;39.57;35.40;;;16.40;99.90;;;;;;5007135;28;20189;-67
2021/06/06 08:16:28;;;;;;;42.87;36.70;;;16.40;99.90;;;;;;5008435;28;20436;-67
2021/06/06 08:18:53;;;;;;;42.70;36.77;;;16.40;99.90;;;;;;5007642;28;20185;-67
2021/06/06 08:21:35;;;;;;;50.70;41.53;;;16.50;99.90;;;;;;5006159;28;20185;-67
2021/06/06 08:24:01;;;;;;;55.37;45.57;;;16.50;99.90;;;;;;5007552;28;20181;-67
2021/06/06 08:26:27;;;;;;;61.33;49.67;;;16.40;99.90;;;;;;5000966;28;20436;-67
2021/06/06 08:28:54;;;;;;;64.30;48.93;;;16.50;99.90;;;;;;5008228;28;20264;-67
2021/06/06 08:31:23;;;;;;;72.13;51.67;;;16.40;99.90;;;;;;5001870;28;20453;-67
2021/06/06 08:33:49;;;;;;;65.57;51.10;;;16.40;99.90;;;;;;4995870;28;20429;-67
2021/06/06 08:36:33;;;;;;;68.43;52.40;;;16.40;99.90;;;;;;5007914;28;20439;-67
2021/06/06 08:39:00;;;;;;;64.57;49.40;;;16.50;99.90;;;;;;4997987;28;20463;-67
2021/06/06 08:41:36;;;;;;;67.57;51.33;;;16.50;99.90;;;;;;5003820;28;20491;-67
2021/06/06 08:44:24;;;;;;;65.00;47.00;;;16.40;99.90;;;;;;5004381;28;20431;-67
2021/06/06 08:47:16;;;;;;;57.33;43.03;;;16.40;99.90;;;;;;5006921;28;20921;-67
2021/06/06 08:49:49;;;;;;;51.53;42.53;;;16.40;99.90;;;;;;5007078;28;20515;-67
2021/06/06 08:52:52;;;;;;;53.10;43.97;;;16.40;99.90;;;;;;5004610;28;20972;-67
2021/06/06 08:55:51;;;;;;;54.53;39.97;;;16.40;99.90;;;;;;5006415;28;20415;-67
2021/06/06 08:58:42;;;;;;;47.53;36.93;;;16.40;99.90;;;;;;4999687;28;20556;-67
2021/06/06 09:01:26;;;;;;;45.50;38.43;;;16.40;99.90;;;;;;5000541;28;20505;-67
2021/06/06 09:03:55;;;;;;;46.50;36.73;;;16.40;99.90;;;;;;5010726;28;20846;-67
2021/06/06 09:06:46;;;;;;;44.77;34.70;;;16.40;99.90;;;;;;5007403;28;20518;-67
2021/06/06 09:09:13;;;;;;;45.27;35.93;;;16.40;99.90;;;;;;4994131;28;20516;-67
2021/06/06 09:11:39;;;;;;;43.97;36.83;;;16.40;99.90;;;;;;5007048;28;20471;-67
2021/06/06 09:14:04;;;;;;;44.57;35.10;;;16.40;99.90;;;;;;4999921;28;20447;-67
2021/06/06 09:16:36;;;;;;;41.63;34.93;;;16.50;99.90;;;;;;5010605;28;20431;-67
2021/06/06 09:19:08;;;;;;;46.67;34.97;;;16.50;99.90;;;;;;5011247;28;20174;-67
2021/06/06 09:21:34;;;;;;;43.77;34.30;;;16.60;99.90;;;;;;5007180;28;20809;-67
2021/06/06 09:24:11;;;;;;;53.40;42.23;;;16.70;99.90;;;;;;5009783;28;20442;-67
2021/06/06 09:26:38;;;;;;;77.63;51.47;;;16.70;99.90;;;;;;5007623;28;20424;-67
2021/06/06 09:29:23;;;;;;;88.17;58.50;;;16.70;99.90;;;;;;5009606;28;20485;-67
2021/06/06 09:31:49;;;;;;;85.53;55.00;;;16.70;99.90;;;;;;5011026;28;20546;-67
2021/06/06 09:34:24;;;;;;;83.33;54.17;;;16.60;99.90;;;;;;5007734;28;20425;-67
2021/06/06 09:37:07;;;;;;;77.43;53.73;;;16.60;99.90;;;;;;5009213;28;20799;-67
2021/06/06 09:39:45;;;;;;;88.17;55.63;;;16.60;99.90;;;;;;5002566;28;20479;-67
2021/06/06 09:42:34;;;;;;;90.00;57.23;;;16.60;99.90;;;;;;5011684;28;20428;-67
2021/06/06 09:45:05;;;;;;;85.73;56.20;;;16.50;99.90;;;;;;5011849;28;20444;-67
2021/06/06 09:47:30;;;;;;;93.50;56.47;;;16.50;99.90;;;;;;5011082;28;20432;-67
2021/06/06 09:50:18;;;;;;;88.70;57.50;;;16.50;99.90;;;;;;5008645;28;20523;-67
2021/06/06 09:52:46;;;;;;;97.23;58.57;;;16.50;99.90;;;;;;5008199;28;20177;-67
2021/06/06 09:55:21;;;;;;;102.77;59.73;;;16.50;99.90;;;;;;5009551;28;20479;-67
2021/06/06 09:57:48;;;;;;;100.70;60.30;;;16.50;99.90;;;;;;5012372;28;20472;-67
2021/06/06 10:00:27;;;;;;;103.00;61.60;;;16.40;99.90;;;;;;5010560;28;20476;-67
2021/06/06 10:02:56;;;;;;;96.87;59.73;;;16.40;99.90;;;;;;5009952;28;20535;-67
2021/06/06 10:05:39;;;;;;;99.33;62.00;;;16.40;99.90;;;;;;5007942;28;20507;-67
2021/06/06 10:08:20;;;;;;;100.60;58.57;;;16.40;99.90;;;;;;5007858;28;20514;-67
2021/06/06 10:10:51;;;;;;;98.53;61.13;;;16.40;99.90;;;;;;5007924;28;20484;-67
2021/06/06 10:13:24;;;;;;;108.80;63.57;;;16.40;99.90;;;;;;5004396;28;20433;-67
2021/06/06 10:15:57;;;;;;;110.93;66.80;;;16.50;99.90;;;;;;5009537;28;20424;-67
2021/06/06 10:18:29;;;;;;;118.90;71.07;;;16.40;99.90;;;;;;5002516;28;20424;-67
2021/06/06 10:21:07;;;;;;;117.13;70.30;;;16.40;99.90;;;;;;5009281;28;20926;-67
2021/06/06 10:23:41;;;;;;;115.37;74.60;;;16.40;99.90;;;;;;5008497;28;20432;-67
2021/06/06 10:26:18;;;;;;;112.03;73.63;;;16.50;99.90;;;;;;5007083;28;20945;-67
2021/06/06 10:28:50;;;;;;;118.87;73.13;;;16.40;99.90;;;;;;5003663;28;20475;-67
2021/06/06 10:31:36;;;;;;;111.70;67.10;;;16.50;99.90;;;;;;4995588;28;20475;-67
2021/06/06 10:34:22;;;;;;;118.13;68.97;;;16.50;99.90;;;;;;5004493;28;20776;-67
2021/06/06 10:36:48;;;;;;;103.47;67.67;;;16.60;99.90;;;;;;5003389;28;20433;-67
2021/06/06 10:39:22;;;;;;;99.20;63.83;;;16.60;99.90;;;;;;5009244;28;20467;-67
2021/06/06 10:42:07;;;;;;;92.67;62.60;;;16.60;99.90;;;;;;5010093;28;20189;-67
2021/06/06 10:45:00;;;;;;;95.03;58.73;;;16.70;99.90;;;;;;5005209;28;20428;-67
2021/06/06 10:48:08;;;;;;;92.87;62.87;;;16.70;99.90;;;;;;5009303;28;20988;-67
2021/06/06 10:50:38;;;;;;;93.63;59.20;;;16.70;99.90;;;;;;5001664;28;20514;-67
2021/06/06 10:53:20;;;;;;;87.03;58.97;;;16.70;99.90;;;;;;5009130;28;20421;-67
2021/06/06 10:55:55;;;;;;;81.57;57.17;;;16.80;99.90;;;;;;5009368;28;20995;-67
2021/06/06 10:58:30;;;;;;;92.70;57.67;;;16.90;99.90;;;;;;5003626;28;20463;-67
2021/06/06 11:01:07;;;;;;;83.60;49.93;;;16.90;99.90;;;;;;5008909;28;20467;-67
2021/06/06 11:03:35;;;;;;;67.50;45.47;;;16.90;99.90;;;;;;5000783;28;20441;-67
2021/06/06 11:06:05;;;;;;;64.67;43.30;;;16.90;99.90;;;;;;5006142;28;20507;-67
2021/06/06 11:08:31;;;;;;;60.17;40.33;;;16.90;99.90;;;;;;5007645;28;20562;-67
2021/06/06 11:11:12;;;;;;;63.37;43.37;;;16.90;99.90;;;;;;5006204;28;20556;-67
2021/06/06 11:13:42;;;;;;;53.40;38.30;;;17.00;99.90;;;;;;5001151;28;20424;-67
2021/06/06 11:16:19;;;;;;;53.07;39.97;;;17.00;99.90;;;;;;4998325;28;20561;-67
2021/06/06 11:19:02;;;;;;;52.13;39.07;;;17.20;99.90;;;;;;5006381;28;20846;-67
2021/06/06 11:21:33;;;;;;;56.10;38.50;;;17.30;99.90;;;;;;5001577;28;20439;-67
2021/06/06 11:24:01;;;;;;;51.43;37.30;;;17.30;99.90;;;;;;5008717;28;20436;-67
2021/06/06 11:26:32;;;;;;;63.97;43.50;;;17.40;99.90;;;;;;5004538;28;20872;-67
2021/06/06 11:29:13;;;;;;;54.63;40.23;;;17.50;99.90;;;;;;5004274;28;20507;-67
2021/06/06 11:31:58;;;;;;;57.33;43.60;;;17.50;99.90;;;;;;5002507;28;20540;-67
2021/06/06 11:34:33;;;;;;;61.23;44.27;;;17.50;99.90;;;;;;5005870;28;22221;-67
2021/06/06 11:37:27;;;;;;;61.47;42.80;;;17.60;99.90;;;;;;5008449;28;20538;-67
2021/06/06 11:39:54;;;;;;;59.80;44.27;;;17.60;99.90;;;;;;4990904;28;20493;-67
2021/06/06 11:42:23;;;;;;;57.80;42.43;;;17.60;99.90;;;;;;4995688;28;20457;-67
2021/06/06 11:44:55;;;;;;;77.40;51.70;;;17.60;99.90;;;;;;5006452;28;20448;-67
2021/06/06 11:47:35;;;;;;;78.50;52.73;;;17.60;99.90;;;;;;5007170;28;20893;-67
2021/06/06 11:50:23;;;;;;;92.53;60.93;;;17.50;99.90;;;;;;5007574;28;20440;-67
2021/06/06 11:52:58;;;;;;;92.53;62.07;;;17.50;99.90;;;;;;5015700;28;20464;-67
2021/06/06 11:55:29;;;;;;;97.40;63.77;;;17.40;99.90;;;;;;5006005;28;20434;-67
2021/06/06 11:58:15;;;;;;;90.13;62.17;;;17.40;99.90;;;;;;5005852;28;20431;-67
2021/06/06 12:00:51;;;;;;;94.37;63.97;;;17.30;99.90;;;;;;5000908;28;20485;-67
2021/06/06 12:03:32;;;;;;;102.80;66.00;;;17.30;99.90;;;;;;4999582;28;20930;-67
2021/06/06 12:06:06;;;;;;;89.87;63.17;;;17.40;99.90;;;;;;5008162;28;20526;-67
2021/06/06 12:08:54;;;;;;;103.63;68.27;;;17.30;99.90;;;;;;5009285;28;20456;-67
2021/06/06 12:11:20;;;;;;;95.17;67.00;;;17.30;99.90;;;;;;5008453;28;20454;-67
2021/06/06 12:13:51;;;;;;;96.03;63.30;;;17.30;99.90;;;;;;4998894;28;20429;-67
2021/06/06 12:16:27;;;;;;;92.47;65.50;;;17.40;99.90;;;;;;5006019;28;20165;-67
2021/06/06 12:19:09;;;;;;;97.03;66.77;;;17.30;99.90;;;;;;5006917;28;20433;-67
2021/06/06 12:21:38;;;;;;;99.50;68.57;;;17.40;99.90;;;;;;5001638;28;20756;-67
2021/06/06 12:24:21;;;;;;;83.63;59.70;;;17.30;99.90;;;;;;5001078;28;20791;-67
2021/06/06 12:26:52;;;;;;;88.13;63.00;;;17.40;99.90;;;;;;5010783;28;20511;-67
2021/06/06 12:29:34;;;;;;;77.70;57.87;;;17.30;99.90;;;;;;5019006;28;20492;-67
2021/06/06 12:32:11;;;;;;;75.90;53.50;;;17.30;99.90;;;;;;5008748;28;20473;-67
2021/06/06 12:34:37;;;;;;;81.13;58.87;;;17.20;99.90;;;;;;5003038;28;20431;-67
2021/06/06 12:37:16;;;;;;;79.87;57.47;;;17.20;99.90;;;;;;5001613;28;20431;-67
2021/06/06 12:39:45;;;;;;;81.40;58.43;;;17.20;99.90;;;;;;5009799;28;20528;-67
2021/06/06 12:42:14;;;;;;;71.33;54.63;;;17.20;99.90;;;;;;5010084;28;20442;-67
2021/06/06 12:44:43;;;;;;;75.17;55.30;;;17.20;99.90;;;;;;5005784;28;20425;-67
2021/06/06 12:47:27;;;;;;;77.60;55.97;;;17.30;99.90;;;;;;5010984;28;20439;-67